createdAt,value
2019-04-07T00:01:00.224Z,12.90
2019-04-07T00:03:30.010Z,12.80
2019-04-07T00:05:59.824Z,12.90
2019-04-07T00:08:29.976Z,12.90
2019-04-07T00:11:00.185Z,12.80
2019-04-07T00:13:30.957Z,12.80
2019-04-07T00:16:01.968Z,12.90
2019-04-07T00:18:32.053Z,12.90
2019-04-07T00:21:01.991Z,12.80
2019-04-07T00:23:31.990Z,12.80
2019-04-07T00:26:02.209Z,12.80
2019-04-07T00:28:32.507Z,12.80
2019-04-07T00:31:02.534Z,12.70
2019-04-07T00:33:32.492Z,12.80
2019-04-07T00:36:05.116Z,12.70
2019-04-07T00:41:20.980Z,12.70
2019-04-07T00:43:50.754Z,12.70
2019-04-07T00:46:20.301Z,12.70
2019-04-07T00:48:49.902Z,12.70
2019-04-07T00:51:20.564Z,12.70
2019-04-07T00:53:50.752Z,12.80
2019-04-07T00:56:20.687Z,12.70
2019-04-07T00:58:53.250Z,12.70
2019-04-07T01:01:23.119Z,12.70
2019-04-07T01:03:53.459Z,12.70
2019-04-07T01:06:23.125Z,12.80
2019-04-07T01:08:52.607Z,12.80
2019-04-07T01:11:22.297Z,12.80
2019-04-07T01:13:52.057Z,12.80
2019-04-07T01:16:21.988Z,12.80
2019-04-07T01:18:51.984Z,12.80
2019-04-07T01:21:21.799Z,12.80
2019-04-07T01:23:51.726Z,12.70
2019-04-07T01:26:21.698Z,12.80
2019-04-07T01:28:54.308Z,12.70
2019-04-07T01:31:25.914Z,12.70
2019-04-07T01:33:55.606Z,12.70
2019-04-07T01:36:25.793Z,12.80
2019-04-07T01:38:56.504Z,12.80
2019-04-07T01:41:40.910Z,12.70
2019-04-07T01:44:25.677Z,12.80
2019-04-07T01:47:13.638Z,12.70
2019-04-07T01:50:21.096Z,12.50
2019-04-07T01:53:19.146Z,12.50
2019-04-07T01:56:07.627Z,12.40
2019-04-07T01:58:52.567Z,12.40
2019-04-07T02:01:28.508Z,12.20
2019-04-07T02:04:15.163Z,12.20
2019-04-07T02:07:02.888Z,12.20
2019-04-07T02:09:43.593Z,12.20
2019-04-07T02:12:47.806Z,12.20
2019-04-07T02:15:35.281Z,12.20
2019-04-07T02:18:25.310Z,12.20
2019-04-07T02:21:14.236Z,12.30
2019-04-07T02:24:12.332Z,12.30
2019-04-07T02:26:50.594Z,12.30
2019-04-07T02:29:58.899Z,12.30
2019-04-07T02:33:00.089Z,12.30
2019-04-07T02:35:56.027Z,12.30
2019-04-07T02:38:48.148Z,12.20
2019-04-07T02:41:24.058Z,12.30
2019-04-07T02:44:07.617Z,12.20
2019-04-07T02:47:01.011Z,12.20
2019-04-07T02:49:43.689Z,12.10
2019-04-07T02:52:30.272Z,12.10
2019-04-07T03:03:29.388Z,12.10
2019-04-07T03:06:44.022Z,12.10
2019-04-07T03:09:25.998Z,12.20
2019-04-07T03:12:33.245Z,12.20
2019-04-07T03:15:11.161Z,12.20
2019-04-07T03:17:52.274Z,12.20
2019-04-07T03:20:29.942Z,12.10
2019-04-07T03:23:28.681Z,12.10
2019-04-07T03:26:16.348Z,12.10
2019-04-07T03:29:05.842Z,12.10
2019-04-07T03:31:55.972Z,12.10
2019-04-07T03:34:44.850Z,12.00
2019-04-07T03:37:41.183Z,11.90
2019-04-07T03:40:35.561Z,11.90
2019-04-07T03:43:34.586Z,11.90
2019-04-07T03:46:09.324Z,11.80
2019-04-07T03:48:43.455Z,11.80
2019-04-07T03:51:33.887Z,11.70
2019-04-07T03:57:47.717Z,11.60
2019-04-07T04:01:35.563Z,11.70
2019-04-07T04:04:24.299Z,11.70
2019-04-07T04:07:22.566Z,11.60
2019-04-07T04:10:04.122Z,11.70
2019-04-07T04:12:56.452Z,11.60
2019-04-07T04:15:33.699Z,11.70
2019-04-07T04:20:49.313Z,11.70
2019-04-07T04:23:19.998Z,11.70
2019-04-07T04:28:35.389Z,11.70
2019-04-07T04:31:05.075Z,11.70
2019-04-07T04:36:20.453Z,11.60
2019-04-07T04:38:50.335Z,11.60
2019-04-07T04:41:21.031Z,11.60
2019-04-07T04:43:50.634Z,11.50
2019-04-07T04:46:20.074Z,11.50
2019-04-07T04:48:50.013Z,11.50
2019-04-07T04:51:20.247Z,11.50
2019-04-07T04:53:51.696Z,11.40
2019-04-07T04:56:22.735Z,11.40
2019-04-07T04:58:53.274Z,11.50
2019-04-07T05:01:23.311Z,11.50
2019-04-07T05:03:53.876Z,11.50
2019-04-07T05:06:24.269Z,11.50
2019-04-07T05:08:54.545Z,11.50
2019-04-07T05:11:24.813Z,11.50
2019-04-07T05:13:54.565Z,11.50
2019-04-07T05:16:24.230Z,11.50
2019-04-07T05:18:54.104Z,11.50
2019-04-07T05:21:24.028Z,11.50
2019-04-07T05:23:53.913Z,11.50
2019-04-07T05:26:24.045Z,11.50
2019-04-07T05:28:53.865Z,11.50
2019-04-07T05:31:23.547Z,11.50
2019-04-07T05:33:53.276Z,11.60
2019-04-07T05:36:23.578Z,11.60
2019-04-07T05:38:53.337Z,11.60
2019-04-07T05:41:23.071Z,11.60
2019-04-07T05:43:53.527Z,11.60
2019-04-07T05:46:23.783Z,11.70
2019-04-07T05:48:53.512Z,11.70
2019-04-07T05:51:23.682Z,11.70
2019-04-07T05:53:53.848Z,11.80
2019-04-07T05:56:28.141Z,11.80
2019-04-07T05:58:55.093Z,11.80
2019-04-07T06:01:24.874Z,11.80
2019-04-07T06:03:57.750Z,11.90
2019-04-07T06:06:27.913Z,11.90
2019-04-07T06:08:57.774Z,11.90
2019-04-07T06:11:31.287Z,11.90
2019-04-07T06:13:58.761Z,11.90
2019-04-07T06:16:28.803Z,12.00
2019-04-07T06:18:58.905Z,12.00
2019-04-07T06:21:28.652Z,12.00
2019-04-07T06:23:59.828Z,12.10
2019-04-07T06:26:29.973Z,12.20
2019-04-07T06:28:59.858Z,12.20
2019-04-07T06:31:32.226Z,12.30
2019-04-07T06:34:03.187Z,12.30
2019-04-07T06:36:32.920Z,12.40
2019-04-07T06:39:04.657Z,12.50
2019-04-07T06:41:34.552Z,12.50
2019-04-07T06:44:11.397Z,12.50
2019-04-07T06:47:05.342Z,12.50
2019-04-07T06:50:05.906Z,12.50
2019-04-07T06:52:54.719Z,12.50
2019-04-07T06:55:37.312Z,12.60
2019-04-07T07:03:57.558Z,12.70
2019-04-07T07:06:47.114Z,12.70
2019-04-07T07:09:34.962Z,12.70
2019-04-07T07:12:27.078Z,12.80
2019-04-07T07:18:04.653Z,12.90
2019-04-07T07:20:52.662Z,12.90
2019-04-07T07:23:26.376Z,13.00
2019-04-07T07:25:56.546Z,12.90
2019-04-07T07:28:26.350Z,13.10
2019-04-07T07:30:56.154Z,13.10
2019-04-07T07:33:25.949Z,13.10
2019-04-07T07:35:55.627Z,13.10
2019-04-07T07:38:32.098Z,13.20
2019-04-07T07:41:01.533Z,13.30
2019-04-07T07:43:31.911Z,13.40
2019-04-07T07:46:04.286Z,13.50
2019-04-07T07:51:20.301Z,13.70
2019-04-07T07:53:50.531Z,13.90
2019-04-07T07:56:20.379Z,14.00
2019-04-07T08:01:51.390Z,14.10
2019-04-07T08:04:20.795Z,14.20
2019-04-07T08:06:51.221Z,14.30
2019-04-07T08:09:23.119Z,14.30
2019-04-07T08:11:54.398Z,14.40
2019-04-07T08:17:33.147Z,14.50
2019-04-07T08:20:01.271Z,14.50
2019-04-07T08:22:36.546Z,14.60
2019-04-07T08:25:02.706Z,14.70
2019-04-07T08:27:57.446Z,14.80
2019-04-07T11:34:55.925Z,21.00
2019-04-07T11:37:45.007Z,21.20
2019-04-07T11:40:53.544Z,21.50
2019-04-07T11:43:44.988Z,21.50
2019-04-07T13:24:31.065Z,22.90
2019-04-07T13:27:14.326Z,23.20
2019-04-07T13:29:55.333Z,23.20
2019-04-07T13:32:56.674Z,23.30
2019-04-07T13:35:38.162Z,23.40
2019-04-07T13:38:19.638Z,23.50
2019-04-07T13:41:07.331Z,23.50
2019-04-07T13:43:54.935Z,23.60
2019-04-07T13:46:59.174Z,23.50
2019-04-07T13:49:57.346Z,23.40
2019-04-07T13:52:46.395Z,23.20
2019-04-07T13:55:40.278Z,23.10
2019-04-07T13:58:26.110Z,23.20
2019-04-07T14:01:13.773Z,23.20
2019-04-07T14:04:02.329Z,23.10
2019-04-07T14:06:58.667Z,23.00
2019-04-07T14:09:39.156Z,22.70
2019-04-07T14:15:29.954Z,22.60
2019-04-07T14:18:16.606Z,22.60
2019-04-07T14:21:14.789Z,22.50
2019-04-07T14:24:23.768Z,22.40
2019-04-07T14:27:15.348Z,22.00
2019-04-07T14:30:15.127Z,21.80
2019-04-07T14:36:11.644Z,22.20
2019-04-07T14:39:05.323Z,22.40
2019-04-07T14:42:07.620Z,22.70
2019-04-07T14:44:46.800Z,22.70
2019-04-07T14:47:34.211Z,22.70
2019-04-07T14:50:13.064Z,22.80
2019-04-07T14:52:51.959Z,22.90
2019-04-07T14:55:50.949Z,23.10
2019-04-07T14:58:48.419Z,23.20
2019-04-07T15:01:40.128Z,23.40
2019-04-07T15:04:10.844Z,23.20
2019-04-07T15:06:44.883Z,23.50
2019-04-07T15:09:33.034Z,23.50
2019-04-07T15:12:20.371Z,23.40
2019-04-07T15:14:45.953Z,23.50
2019-04-07T15:20:16.032Z,23.80
2019-04-07T15:22:47.276Z,23.90
2019-04-07T15:25:20.373Z,24.30
2019-04-07T15:27:56.481Z,24.30
2019-04-07T15:30:31.126Z,24.60
2019-04-07T15:33:04.181Z,24.80
2019-04-07T15:35:35.289Z,24.80
2019-04-07T15:38:05.419Z,25.20
2019-04-07T15:40:36.487Z,25.40
2019-04-07T15:43:10.045Z,25.60
2019-04-07T15:45:39.751Z,25.90
2019-04-07T15:48:10.800Z,26.20
2019-04-07T15:50:40.464Z,26.50
2019-04-07T15:53:13.445Z,26.30
2019-04-07T15:55:47.580Z,26.60
2019-04-07T15:58:13.498Z,26.50
2019-04-07T16:03:54.845Z,26.40
2019-04-07T16:06:24.825Z,26.00
2019-04-07T16:08:57.329Z,25.70
2019-04-07T16:11:30.715Z,25.60
2019-04-07T16:14:00.386Z,25.50
2019-04-07T16:16:30.757Z,25.00
2019-04-07T16:19:02.705Z,24.80
2019-04-07T16:21:33.145Z,24.20
2019-04-07T16:24:06.271Z,24.00
2019-04-07T16:26:37.174Z,23.70
2019-04-07T16:29:08.090Z,23.60
2019-04-07T16:31:37.980Z,23.10
2019-04-07T16:34:10.335Z,22.70
2019-04-07T16:36:41.234Z,22.20
2019-04-07T16:45:40.027Z,21.60
2019-04-07T16:48:10.747Z,21.40
2019-04-07T16:50:41.839Z,21.30
2019-04-07T16:53:13.989Z,21.30
2019-04-07T16:58:33.181Z,21.10
2019-04-07T17:01:01.359Z,20.90
2019-04-07T17:03:32.827Z,20.90
2019-04-07T17:06:03.002Z,20.80
2019-04-07T17:08:33.851Z,20.80
2019-04-07T17:11:06.418Z,20.70
2019-04-07T17:13:40.780Z,20.60
2019-04-07T17:16:10.110Z,20.60
2019-04-07T17:18:43.203Z,20.50
2019-04-07T17:21:15.691Z,20.50
2019-04-07T17:23:46.093Z,20.50
2019-04-07T17:26:16.966Z,20.40
2019-04-07T17:28:50.236Z,20.30
2019-04-07T17:31:20.821Z,20.30
2019-04-07T17:33:51.993Z,20.20
2019-04-07T17:36:23.023Z,20.10
2019-04-07T17:39:18.617Z,20.10
2019-04-07T17:41:50.412Z,20.00
2019-04-07T17:47:45.218Z,19.70
2019-04-07T17:50:40.325Z,19.60
2019-04-07T17:53:29.739Z,19.50
2019-04-07T17:56:30.953Z,19.40
2019-04-07T17:59:40.154Z,19.20
2019-04-07T18:02:32.251Z,19.20
2019-04-07T18:05:12.617Z,19.20
2019-04-07T18:08:05.872Z,19.00
2019-04-07T21:15:29.468Z,15.70
2019-04-07T21:18:15.864Z,15.60
2019-04-07T21:20:58.837Z,15.60
2019-04-07T21:23:39.668Z,15.60
2019-04-07T21:29:23.825Z,15.50
2019-04-07T21:32:15.125Z,15.50
2019-04-07T21:35:08.837Z,15.50
2019-04-07T21:38:00.497Z,15.50
2019-04-07T21:40:44.938Z,15.40
2019-04-07T21:46:32.586Z,15.40
2019-04-07T21:49:35.446Z,15.40
2019-04-07T21:52:07.260Z,15.30
2019-04-07T21:55:00.964Z,15.30
2019-04-07T21:57:54.543Z,15.30
2019-04-07T22:00:41.366Z,15.30
2019-04-07T22:06:20.618Z,15.20
2019-04-07T22:11:49.736Z,15.10
2019-04-07T22:14:19.309Z,15.10
2019-04-07T22:16:49.163Z,15.10
2019-04-07T22:19:20.202Z,15.00
2019-04-07T22:21:53.267Z,15.00
2019-04-07T22:24:21.927Z,15.00
2019-04-07T22:26:51.808Z,15.00
2019-04-07T22:29:22.489Z,15.00
2019-04-07T22:31:54.398Z,14.90
2019-04-07T22:34:24.777Z,14.90
2019-04-07T22:36:54.478Z,14.90
2019-04-07T22:39:27.465Z,14.80
2019-04-07T22:41:56.973Z,14.80
2019-04-07T22:44:26.692Z,14.80
2019-04-07T22:46:59.290Z,14.80
2019-04-07T22:49:31.841Z,14.80
2019-04-07T22:52:01.249Z,14.70
2019-04-07T22:54:31.365Z,14.70
2019-04-07T22:57:01.048Z,14.70
2019-04-07T22:59:32.233Z,14.70
2019-04-07T23:02:03.169Z,14.70
2019-04-07T23:04:32.833Z,14.60
2019-04-07T23:07:04.130Z,14.60
2019-04-07T23:12:29.515Z,14.50
2019-04-07T23:14:59.404Z,14.50
2019-04-07T23:17:54.211Z,14.50
2019-04-07T23:20:23.832Z,14.50
2019-04-07T23:22:54.205Z,14.50
2019-04-07T23:25:24.048Z,14.50
2019-04-07T23:27:54.310Z,14.40
2019-04-07T23:30:27.629Z,14.40
2019-04-07T23:32:57.803Z,14.30
2019-04-07T23:35:27.320Z,14.30
2019-04-07T23:37:57.412Z,14.30
2019-04-07T23:40:27.987Z,14.30
2019-04-07T23:42:57.602Z,14.30
2019-04-07T23:45:27.397Z,14.30
2019-04-07T23:47:58.734Z,14.20
2019-04-07T23:50:29.415Z,14.20
2019-04-07T23:53:03.503Z,14.20
2019-04-07T23:55:33.123Z,14.20
2019-04-07T23:58:02.810Z,14.20
